createdAt,value
2019-06-15T00:00:16.902Z,13.5
2019-06-15T00:01:26.846Z,13.5
2019-06-15T00:02:36.786Z,13.54
2019-06-15T00:03:46.722Z,13.54
2019-06-15T00:04:56.718Z,13.4
2019-06-15T00:06:06.731Z,13.49
2019-06-15T00:07:16.427Z,13.43
2019-06-15T00:08:26.360Z,13.39
2019-06-15T00:09:36.075Z,13.33
2019-06-15T00:10:46.052Z,13.37
2019-06-15T00:11:56.006Z,13.37
2019-06-15T00:13:05.968Z,13.33
2019-06-15T00:14:15.911Z,13.27
2019-06-15T00:15:25.875Z,13.31
2019-06-15T00:16:35.817Z,13.37
2019-06-15T00:17:45.774Z,13.36
2019-06-15T00:18:56.076Z,13.36
2019-06-15T00:20:06.051Z,13.28
2019-06-15T00:21:16.165Z,13.31
2019-06-15T00:22:26.100Z,13.31
2019-06-15T00:23:35.780Z,13.28
2019-06-15T00:24:45.718Z,13.33
2019-06-15T00:25:55.655Z,13.2
2019-06-15T00:27:05.358Z,13.28
2019-06-15T00:28:15.304Z,13.23
2019-06-15T00:29:25.245Z,13.19
2019-06-15T00:30:35.187Z,13.13
2019-06-15T00:31:45.144Z,13.12
2019-06-15T00:32:55.128Z,13.13
2019-06-15T00:34:05.071Z,13.19
2019-06-15T00:35:15.015Z,13.13
2019-06-15T00:36:24.956Z,13.11
2019-06-15T00:37:34.889Z,13.08
2019-06-15T00:38:44.826Z,13.12
2019-06-15T00:39:54.766Z,13.11
2019-06-15T00:41:04.459Z,13.09
2019-06-15T00:42:14.388Z,13.06
2019-06-15T00:43:24.072Z,13.08
2019-06-15T00:44:34.014Z,13.02
2019-06-15T00:45:44.004Z,13.03
2019-06-15T00:46:53.943Z,13.08
2019-06-15T00:48:03.877Z,13.02
2019-06-15T00:49:13.562Z,13.03
2019-06-15T00:50:23.376Z,12.95
2019-06-15T00:51:33.329Z,13.05
2019-06-15T00:52:43.295Z,12.99
2019-06-15T00:53:53.261Z,12.95
2019-06-15T00:55:03.286Z,13.08
2019-06-15T00:56:13.233Z,13.02
2019-06-15T00:57:23.165Z,13.01
2019-06-15T00:58:32.882Z,13.01
2019-06-15T00:59:42.812Z,13.02
2019-06-15T01:00:52.745Z,12.94
2019-06-15T01:02:02.692Z,12.95
2019-06-15T01:03:12.645Z,12.99
2019-06-15T01:04:22.581Z,13.01
2019-06-15T01:05:32.305Z,12.93
2019-06-15T01:06:42.241Z,12.99
2019-06-15T01:07:52.177Z,13.01
2019-06-15T01:09:02.134Z,13.02
2019-06-15T01:10:12.068Z,12.94
2019-06-15T01:11:22.004Z,13.02
2019-06-15T01:12:31.703Z,13.01
2019-06-15T01:13:41.668Z,13.03
2019-06-15T01:14:51.630Z,12.99
2019-06-15T01:16:01.680Z,13.01
2019-06-15T01:17:11.673Z,12.99
2019-06-15T01:18:21.616Z,12.95
2019-06-15T01:19:31.579Z,12.95
2019-06-15T01:20:41.519Z,12.91
2019-06-15T01:21:51.458Z,13.02
2019-06-15T01:23:01.411Z,12.95
2019-06-15T01:24:11.349Z,12.9
2019-06-15T01:25:21.305Z,13.05
2019-06-15T01:26:31.260Z,13.02
2019-06-15T01:27:41.197Z,12.94
2019-06-15T01:28:51.142Z,13.03
2019-06-15T01:30:00.819Z,12.98
2019-06-15T01:31:10.276Z,12.88
2019-06-15T01:32:20.207Z,12.94
2019-06-15T01:33:30.147Z,12.86
2019-06-15T01:34:40.087Z,12.87
2019-06-15T01:35:50.040Z,12.88
2019-06-15T01:36:59.980Z,12.88
2019-06-15T01:38:09.919Z,12.83
2019-06-15T01:39:19.861Z,12.78
2019-06-15T01:40:29.813Z,12.83
2019-06-15T01:41:39.742Z,12.81
2019-06-15T01:42:49.685Z,12.81
2019-06-15T01:43:59.618Z,12.84
2019-06-15T01:45:09.551Z,12.8
2019-06-15T01:46:19.501Z,12.83
2019-06-15T01:47:29.190Z,12.83
2019-06-15T01:48:39.172Z,12.78
2019-06-15T01:49:49.153Z,12.8
2019-06-15T01:50:58.830Z,12.73
2019-06-15T01:52:08.787Z,12.7
2019-06-15T01:53:18.719Z,12.68
2019-06-15T01:54:28.648Z,12.75
2019-06-15T01:55:38.586Z,12.8
2019-06-15T01:56:48.520Z,12.61
2019-06-15T01:57:58.469Z,12.68
2019-06-15T01:59:08.487Z,12.66
2019-06-15T02:00:18.433Z,12.7
2019-06-15T02:01:28.367Z,12.73
2019-06-15T02:02:38.297Z,12.7
2019-06-15T02:03:48.256Z,12.7
2019-06-15T02:04:58.253Z,12.7
2019-06-15T02:06:07.959Z,12.69
2019-06-15T02:07:17.730Z,12.63
2019-06-15T02:08:27.690Z,12.62
2019-06-15T02:09:37.117Z,12.61
2019-06-15T02:10:47.059Z,12.54
2019-06-15T02:11:57.002Z,12.54
2019-06-15T02:13:06.939Z,12.47
2019-06-15T02:14:16.646Z,12.5
2019-06-15T02:15:26.582Z,12.4
2019-06-15T02:16:36.274Z,12.44
2019-06-15T02:17:46.272Z,12.43
2019-06-15T02:18:56.234Z,12.45
2019-06-15T02:20:06.207Z,12.37
2019-06-15T02:21:15.919Z,12.37
2019-06-15T02:22:25.852Z,12.35
2019-06-15T02:23:35.559Z,12.4
2019-06-15T02:24:45.309Z,12.39
2019-06-15T02:25:55.291Z,12.35
2019-06-15T02:27:05.239Z,12.4
2019-06-15T02:28:14.664Z,12.43
2019-06-15T02:29:24.596Z,12.44
2019-06-15T02:30:34.562Z,12.37
2019-06-15T02:31:44.369Z,12.4
2019-06-15T02:32:54.311Z,12.43
2019-06-15T02:34:04.261Z,12.43
2019-06-15T02:35:14.261Z,12.39
2019-06-15T02:36:23.982Z,12.4
2019-06-15T02:37:33.942Z,12.36
2019-06-15T02:38:43.897Z,12.4
2019-06-15T02:39:53.592Z,12.4
2019-06-15T02:41:03.541Z,12.43
2019-06-15T02:42:13.283Z,12.43
2019-06-15T02:43:23.237Z,12.5
2019-06-15T02:44:33.206Z,12.5
2019-06-15T02:45:43.177Z,12.47
2019-06-15T02:46:53.148Z,12.48
2019-06-15T02:48:03.120Z,12.57
2019-06-15T02:49:13.064Z,12.55
2019-06-15T02:50:22.745Z,12.53
2019-06-15T02:51:32.688Z,12.47
2019-06-15T02:52:42.623Z,12.48
2019-06-15T02:53:52.600Z,12.63
2019-06-15T02:55:02.542Z,12.61
2019-06-15T02:56:12.484Z,12.62
2019-06-15T02:57:22.439Z,12.65
2019-06-15T02:58:32.173Z,12.68
2019-06-15T02:59:41.655Z,12.7
2019-06-15T03:00:51.602Z,12.8
2019-06-15T03:02:01.574Z,12.81
2019-06-15T03:03:11.593Z,12.83
2019-06-15T03:04:21.552Z,12.81
2019-06-15T03:05:31.490Z,12.83
2019-06-15T03:06:41.435Z,12.84
2019-06-15T03:07:51.427Z,12.83
2019-06-15T03:09:01.372Z,12.8
2019-06-15T03:10:11.312Z,12.8
2019-06-15T03:11:21.301Z,12.78
2019-06-15T03:12:31.234Z,12.83
2019-06-15T03:13:41.326Z,12.83
2019-06-15T03:14:51.264Z,12.88
2019-06-15T03:16:01.218Z,12.91
2019-06-15T03:17:11.198Z,12.87
2019-06-15T03:18:21.130Z,12.99
2019-06-15T03:19:31.103Z,13.01
2019-06-15T03:20:40.812Z,13.05
2019-06-15T03:21:50.761Z,13.03
2019-06-15T03:23:00.710Z,13.12
2019-06-15T03:24:10.731Z,13.09
2019-06-15T03:25:20.724Z,13.12
2019-06-15T03:26:30.671Z,13.11
2019-06-15T03:27:40.350Z,13.11
2019-06-15T03:28:50.287Z,13.06
2019-06-15T03:30:00.273Z,13.12
2019-06-15T03:31:10.266Z,13.17
2019-06-15T03:32:20.246Z,13.2
2019-06-15T03:33:30.239Z,13.13
2019-06-15T03:34:40.039Z,13.17
2019-06-15T03:35:49.986Z,13.13
2019-06-15T03:36:59.927Z,13.24
2019-06-15T03:38:09.906Z,13.28
2019-06-15T03:39:19.907Z,13.28
2019-06-15T03:40:29.900Z,13.3
2019-06-15T03:41:39.590Z,13.3
2019-06-15T03:42:49.327Z,13.33
2019-06-15T03:43:59.015Z,13.4
2019-06-15T03:45:08.973Z,13.3
2019-06-15T03:46:18.925Z,13.37
2019-06-15T03:47:28.610Z,13.36
2019-06-15T03:48:38.035Z,13.37
2019-06-15T03:49:47.979Z,13.46
2019-06-15T03:50:57.956Z,13.49
2019-06-15T03:52:07.977Z,13.5
2019-06-15T03:53:17.710Z,13.57
2019-06-15T03:54:27.662Z,13.52
2019-06-15T03:55:40.356Z,13.64
2019-06-15T03:56:50.519Z,13.6
2019-06-15T03:58:00.490Z,13.64
2019-06-15T03:59:10.425Z,13.61
2019-06-15T04:00:20.143Z,13.65
2019-06-15T04:01:30.083Z,13.57
2019-06-15T04:02:40.019Z,13.76
2019-06-15T04:03:49.467Z,13.76
2019-06-15T04:04:59.416Z,13.8
2019-06-15T04:06:09.359Z,13.8
2019-06-15T04:07:19.118Z,13.85
2019-06-15T04:08:29.062Z,13.95
2019-06-15T04:09:38.550Z,13.87
2019-06-15T04:10:48.498Z,13.91
2019-06-15T04:11:58.434Z,13.85
2019-06-15T04:13:08.368Z,13.86
2019-06-15T04:14:18.071Z,13.8
2019-06-15T04:15:27.800Z,13.85
2019-06-15T04:16:37.735Z,13.87
2019-06-15T04:17:47.674Z,13.98
2019-06-15T04:18:57.618Z,13.94
2019-06-15T04:20:07.647Z,14.07
2019-06-15T04:21:17.627Z,14.13
2019-06-15T04:22:27.568Z,14.11
2019-06-15T04:23:37.502Z,14.04
2019-06-15T04:24:47.449Z,14.11
2019-06-15T04:25:57.140Z,14.18
2019-06-15T04:27:07.081Z,14.2
2019-06-15T04:28:16.803Z,14.18
2019-06-15T04:29:26.775Z,14.16
2019-06-15T04:30:36.718Z,14.18
2019-06-15T04:31:46.413Z,14.12
2019-06-15T04:32:56.357Z,14.12
2019-06-15T04:34:06.324Z,14.18
2019-06-15T04:35:16.302Z,14.22
2019-06-15T04:36:26.252Z,14.23
2019-06-15T04:37:36.204Z,14.28
2019-06-15T04:38:46.145Z,14.31
2019-06-15T04:39:56.086Z,14.33
2019-06-15T04:41:06.605Z,14.31
2019-06-15T04:42:16.548Z,14.3
2019-06-15T04:43:26.503Z,14.3
2019-06-15T04:44:36.482Z,14.26
2019-06-15T04:45:46.465Z,14.3
2019-06-15T04:46:56.402Z,14.33
2019-06-15T04:48:06.372Z,14.28
2019-06-15T04:49:16.330Z,14.36
2019-06-15T04:50:26.286Z,14.44
2019-06-15T04:51:36.249Z,14.4
2019-06-15T04:52:45.946Z,14.34
2019-06-15T04:53:55.877Z,14.3
2019-06-15T04:55:05.834Z,14.26
2019-06-15T04:56:15.789Z,14.31
2019-06-15T04:57:25.722Z,14.23
2019-06-15T04:58:35.432Z,14.23
2019-06-15T04:59:45.375Z,14.26
2019-06-15T05:00:55.338Z,14.26
2019-06-15T05:02:05.379Z,14.34
2019-06-15T05:03:15.073Z,14.36
2019-06-15T05:04:25.013Z,14.36
2019-06-15T05:05:34.952Z,14.44
2019-06-15T05:06:44.886Z,14.43
2019-06-15T05:07:54.839Z,14.41
2019-06-15T05:09:04.792Z,14.41
2019-06-15T05:10:14.754Z,14.55
2019-06-15T05:11:24.690Z,14.48
2019-06-15T05:12:34.651Z,14.59
2019-06-15T05:13:44.591Z,14.66
2019-06-15T05:14:54.558Z,14.63
2019-06-15T05:16:04.533Z,14.71
2019-06-15T05:17:14.516Z,14.74
2019-06-15T05:18:24.310Z,14.87
2019-06-15T05:19:34.040Z,14.86
2019-06-15T05:20:43.770Z,14.81
2019-06-15T05:21:53.711Z,14.96
2019-06-15T05:23:03.667Z,15
2019-06-15T05:24:13.615Z,15
2019-06-15T05:25:23.551Z,15.04
2019-06-15T05:26:33.231Z,15.1
2019-06-15T05:27:43.172Z,15.15
2019-06-15T05:28:52.869Z,15.15
2019-06-15T05:30:02.815Z,15.25
2019-06-15T05:31:12.764Z,15.25
2019-06-15T05:32:22.701Z,15.25
2019-06-15T05:33:32.671Z,15.18
2019-06-15T05:34:42.610Z,15.32
2019-06-15T05:35:52.552Z,15.35
2019-06-15T05:37:02.555Z,15.33
2019-06-15T05:38:12.255Z,15.41
2019-06-15T05:39:22.242Z,15.43
2019-06-15T05:40:32.242Z,15.36
2019-06-15T05:41:42.214Z,15.43
2019-06-15T05:42:52.163Z,15.45
2019-06-15T05:44:02.152Z,15.48
2019-06-15T05:45:12.098Z,15.47
2019-06-15T05:46:22.043Z,15.48
2019-06-15T05:47:31.981Z,15.55
2019-06-15T05:48:41.920Z,15.48
2019-06-15T05:49:51.872Z,15.6
2019-06-15T05:51:03.524Z,15.62
2019-06-15T05:52:13.483Z,15.63
2019-06-15T05:53:23.436Z,15.66
2019-06-15T05:54:33.473Z,15.66
2019-06-15T05:55:43.476Z,15.66
2019-06-15T05:56:53.201Z,15.66
2019-06-15T05:58:03.204Z,15.73
2019-06-15T05:59:13.173Z,15.75
2019-06-15T06:00:23.110Z,15.78
2019-06-15T06:01:33.252Z,15.84
2019-06-15T06:02:42.949Z,15.84
2019-06-15T06:03:52.937Z,15.7
2019-06-15T06:05:02.870Z,15.75
2019-06-15T06:06:12.811Z,15.69
2019-06-15T06:07:22.758Z,15.78
2019-06-15T06:08:32.704Z,15.76
2019-06-15T06:09:42.401Z,15.8
2019-06-15T06:10:52.390Z,15.84
2019-06-15T06:12:03.079Z,15.84
2019-06-15T06:13:13.021Z,15.84
2019-06-15T06:14:22.726Z,15.96
2019-06-15T06:15:32.673Z,15.92
2019-06-15T06:16:42.630Z,15.94
2019-06-15T06:17:52.578Z,15.98
2019-06-15T06:19:02.511Z,15.92
2019-06-15T06:20:12.459Z,15.96
2019-06-15T06:21:22.484Z,16.06
2019-06-15T06:22:32.430Z,16.05
2019-06-15T06:23:42.420Z,16.09
2019-06-15T06:24:52.351Z,16.21
2019-06-15T06:26:02.377Z,16.09
2019-06-15T06:27:12.324Z,16.13
2019-06-15T06:28:22.013Z,16.16
2019-06-15T06:29:31.806Z,16.18
2019-06-15T06:30:41.764Z,16.18
2019-06-15T06:31:51.609Z,16.22
2019-06-15T06:33:01.586Z,16.31
2019-06-15T06:34:11.332Z,16.32
2019-06-15T06:35:21.287Z,16.4
2019-06-15T06:36:31.251Z,16.39
2019-06-15T06:37:41.304Z,16.39
2019-06-15T06:38:51.274Z,16.28
2019-06-15T06:40:01.223Z,16.28
2019-06-15T06:41:13.435Z,16.34
2019-06-15T06:42:23.185Z,16.29
2019-06-15T06:43:32.882Z,16.26
2019-06-15T06:44:42.838Z,16.31
2019-06-15T06:45:52.794Z,16.28
2019-06-15T06:47:02.836Z,16.06
2019-06-15T06:48:12.890Z,16.06
2019-06-15T06:49:22.823Z,15.99
2019-06-15T06:50:32.803Z,15.91
2019-06-15T06:51:42.767Z,15.78
2019-06-15T06:52:52.698Z,15.9
2019-06-15T06:54:02.669Z,15.88
2019-06-15T06:55:12.664Z,16.03
2019-06-15T06:56:22.619Z,16.02
2019-06-15T06:57:32.609Z,16.02
2019-06-15T06:58:56.523Z,16.22
2019-06-15T07:00:06.047Z,16.22
2019-06-15T07:01:15.985Z,16.28
2019-06-15T07:02:25.926Z,16.28
2019-06-15T07:03:35.634Z,16.39
2019-06-15T07:04:45.653Z,16.43
2019-06-15T07:05:55.620Z,16.44
2019-06-15T07:07:05.554Z,16.49
2019-06-15T07:08:15.506Z,16.49
2019-06-15T07:09:25.227Z,16.57
2019-06-15T07:10:35.183Z,16.65
2019-06-15T07:11:45.118Z,16.61
2019-06-15T07:12:55.061Z,16.57
2019-06-15T07:14:05.146Z,16.72
2019-06-15T07:15:15.109Z,16.73
2019-06-15T07:16:24.844Z,16.69
2019-06-15T07:17:34.784Z,16.72
2019-06-15T07:18:44.734Z,16.83
2019-06-15T07:19:54.715Z,16.86
2019-06-15T07:21:04.676Z,16.82
2019-06-15T07:22:14.705Z,16.84
2019-06-15T07:23:24.430Z,16.91
2019-06-15T07:24:37.280Z,17.02
2019-06-15T07:25:47.340Z,17.09
2019-06-15T07:26:57.348Z,17.07
2019-06-15T07:28:13.132Z,17.05
2019-06-15T07:29:22.610Z,17.13
2019-06-15T07:30:32.339Z,17.09
2019-06-15T07:31:42.292Z,17.23
2019-06-15T07:32:51.742Z,17.24
2019-06-15T07:34:01.677Z,17.3
2019-06-15T07:35:11.634Z,17.35
2019-06-15T07:36:21.592Z,17.32
2019-06-15T07:37:31.531Z,17.31
2019-06-15T07:38:41.215Z,17.42
2019-06-15T07:39:50.963Z,17.41
2019-06-15T07:41:00.914Z,17.44
2019-06-15T07:42:10.883Z,17.52
2019-06-15T07:43:20.585Z,17.56
2019-06-15T07:44:30.282Z,17.65
2019-06-15T07:45:40.250Z,17.75
2019-06-15T07:46:50.272Z,17.75
2019-06-15T07:48:00.213Z,17.8
2019-06-15T07:49:10.157Z,17.76
2019-06-15T07:50:20.176Z,17.78
2019-06-15T07:51:30.112Z,17.84
2019-06-15T07:52:40.089Z,17.88
2019-06-15T07:53:50.028Z,17.86
2019-06-15T07:54:59.973Z,17.9
2019-06-15T07:56:09.942Z,18
2019-06-15T07:57:19.934Z,17.98
2019-06-15T07:58:29.703Z,17.98
2019-06-15T07:59:39.648Z,17.97
2019-06-15T08:00:49.587Z,18.06
2019-06-15T08:01:59.657Z,18.06
2019-06-15T08:03:09.695Z,18.11
2019-06-15T08:04:19.631Z,18.05
2019-06-15T08:05:29.570Z,18.13
2019-06-15T08:06:39.509Z,18.21
2019-06-15T08:07:49.456Z,18.23
2019-06-15T08:08:59.430Z,18.26
2019-06-15T08:10:09.377Z,18.3
2019-06-15T08:11:19.308Z,18.27
2019-06-15T08:12:29.253Z,18.31
2019-06-15T08:13:39.246Z,18.39
2019-06-15T08:14:48.986Z,18.31
2019-06-15T08:15:58.964Z,18.41
2019-06-15T08:17:08.925Z,18.43
2019-06-15T08:18:18.614Z,18.43
2019-06-15T08:19:28.562Z,18.52
2019-06-15T08:20:38.541Z,18.55
2019-06-15T08:21:48.473Z,18.64
2019-06-15T08:22:58.638Z,18.7
2019-06-15T08:24:09.806Z,18.71
2019-06-15T08:25:19.745Z,18.78
2019-06-15T08:26:29.718Z,18.78
2019-06-15T08:27:39.740Z,18.82
2019-06-15T08:28:49.731Z,18.89
2019-06-15T08:29:59.690Z,18.91
2019-06-15T08:31:09.829Z,18.94
2019-06-15T08:32:19.590Z,19.04
2019-06-15T08:33:29.367Z,19.05
2019-06-15T08:34:39.331Z,19.11
2019-06-15T08:35:49.284Z,19.16
2019-06-15T08:36:59.243Z,19.17
2019-06-15T08:38:09.347Z,19.16
2019-06-15T08:39:19.077Z,19.05
2019-06-15T08:40:29.016Z,19.19
2019-06-15T08:41:38.956Z,19.19
2019-06-15T08:42:48.702Z,19.11
2019-06-15T08:43:58.643Z,19.15
2019-06-15T08:45:08.596Z,19.09
2019-06-15T08:46:18.296Z,19.16
2019-06-15T08:47:28.245Z,19.16
2019-06-15T08:48:38.241Z,19.16
2019-06-15T08:49:48.199Z,19.17
2019-06-15T08:50:58.209Z,19.22
2019-06-15T08:52:09.225Z,19.26
2019-06-15T08:53:18.943Z,19.26
2019-06-15T08:54:28.903Z,19.26
2019-06-15T08:55:39.032Z,19.24
2019-06-15T08:56:48.970Z,19.23
2019-06-15T08:57:58.912Z,19.22
2019-06-15T08:59:08.866Z,19.38
2019-06-15T09:00:18.821Z,19.35
2019-06-15T09:01:28.278Z,19.47
2019-06-15T09:02:38.227Z,19.45
2019-06-15T09:03:51.536Z,19.48
2019-06-15T09:05:01.484Z,19.47
2019-06-15T09:06:11.463Z,19.57
2019-06-15T09:07:21.251Z,19.57
2019-06-15T09:08:31.202Z,19.63
2019-06-15T09:09:40.742Z,19.71
2019-06-15T09:10:50.438Z,19.67
2019-06-15T09:12:00.449Z,19.74
2019-06-15T09:13:10.433Z,19.75
2019-06-15T09:14:20.389Z,19.71
2019-06-15T09:15:30.341Z,19.84
2019-06-15T09:16:40.054Z,19.84
2019-06-15T09:17:49.773Z,19.89
2019-06-15T09:19:02.313Z,19.96
2019-06-15T09:20:12.015Z,20.02
2019-06-15T09:21:21.959Z,20.02
2019-06-15T09:22:31.895Z,20.03
2019-06-15T09:23:41.851Z,20.07
2019-06-15T09:24:51.574Z,20.1
2019-06-15T09:26:01.519Z,20.14
2019-06-15T09:27:11.246Z,20.21
2019-06-15T09:28:20.982Z,20.24
2019-06-15T09:29:30.928Z,20.3
2019-06-15T09:30:40.895Z,20.26
2019-06-15T09:31:51.294Z,20.27
2019-06-15T09:33:01.281Z,20.37
2019-06-15T09:34:23.818Z,20.27
2019-06-15T09:35:33.769Z,20.32
2019-06-15T09:36:43.726Z,20.34
2019-06-15T09:37:53.677Z,20.32
2019-06-15T09:39:03.386Z,20.3
2019-06-15T09:40:13.350Z,20.32
2019-06-15T09:41:23.294Z,20.4
2019-06-15T09:42:33.267Z,20.46
2019-06-15T09:43:43.345Z,20.48
2019-06-15T09:44:53.303Z,20.53
2019-06-15T09:46:03.254Z,20.49
2019-06-15T09:47:13.215Z,20.6
2019-06-15T09:48:23.250Z,20.63
2019-06-15T09:49:33.251Z,20.7
2019-06-15T09:50:43.192Z,20.74
2019-06-15T09:51:53.248Z,20.77
2019-06-15T09:53:03.282Z,20.78
2019-06-15T09:54:13.046Z,20.85
2019-06-15T09:55:22.986Z,20.82
2019-06-15T09:56:32.927Z,20.85
2019-06-15T09:57:42.616Z,20.89
2019-06-15T09:58:52.356Z,20.9
2019-06-15T10:00:02.583Z,20.92
2019-06-15T10:01:12.961Z,20.95
2019-06-15T10:02:22.931Z,20.89
2019-06-15T10:03:32.678Z,21.04
2019-06-15T10:04:42.621Z,21.1
2019-06-15T10:05:52.575Z,21.1
2019-06-15T10:07:02.526Z,21.11
2019-06-15T10:08:12.483Z,21.11
2019-06-15T10:09:22.176Z,21.19
2019-06-15T10:10:32.128Z,21.17
2019-06-15T10:11:42.077Z,21.29
2019-06-15T10:12:52.019Z,21.25
2019-06-15T10:14:01.994Z,21.38
2019-06-15T10:15:11.937Z,21.38
2019-06-15T10:16:22.026Z,21.35
2019-06-15T10:17:31.977Z,21.5
2019-06-15T10:18:43.771Z,21.47
2019-06-15T10:19:53.558Z,21.54
2019-06-15T10:21:03.511Z,21.59
2019-06-15T10:22:13.252Z,21.68
2019-06-15T10:23:23.212Z,21.68
2019-06-15T10:24:32.905Z,21.72
2019-06-15T10:25:42.966Z,21.78
2019-06-15T10:26:55.688Z,21.83
2019-06-15T10:28:05.918Z,21.78
2019-06-15T10:29:15.878Z,21.85
2019-06-15T10:30:25.856Z,21.84
2019-06-15T10:31:35.995Z,21.83
2019-06-15T10:32:45.960Z,21.84
2019-06-15T10:33:55.665Z,21.94
2019-06-15T10:35:05.514Z,21.96
2019-06-15T10:36:15.481Z,21.91
2019-06-15T10:37:25.167Z,22.04
2019-06-15T10:38:34.729Z,22.1
2019-06-15T10:39:44.685Z,22.15
2019-06-15T10:40:54.410Z,22.21
2019-06-15T10:42:04.347Z,22.25
2019-06-15T10:43:14.317Z,22.22
2019-06-15T10:44:24.353Z,22.26
2019-06-15T10:45:34.109Z,22.3
2019-06-15T10:46:44.081Z,22.21
2019-06-15T10:47:54.026Z,22.28
2019-06-15T10:49:03.975Z,22.34
2019-06-15T10:50:13.921Z,22.47
2019-06-15T10:51:23.977Z,22.44
2019-06-15T10:52:33.955Z,22.4
2019-06-15T10:53:43.652Z,22.46
2019-06-15T10:54:53.355Z,22.47
2019-06-15T10:56:03.098Z,22.46
2019-06-15T10:57:13.053Z,22.58
2019-06-15T10:58:22.779Z,22.56
2019-06-15T10:59:32.788Z,22.55
2019-06-15T11:00:42.771Z,22.65
2019-06-15T11:01:56.141Z,22.71
2019-06-15T11:03:06.133Z,22.77
2019-06-15T11:04:16.077Z,22.83
2019-06-15T11:05:26.040Z,22.92
2019-06-15T11:06:36.066Z,22.91
2019-06-15T11:07:46.098Z,22.92
2019-06-15T11:08:56.042Z,23.02
2019-06-15T11:10:05.989Z,22.99
2019-06-15T11:11:15.739Z,23.1
2019-06-15T11:12:29.261Z,23.14
2019-06-15T11:13:53.409Z,23.17
2019-06-15T11:15:03.370Z,23.21
2019-06-15T11:16:13.615Z,23.17
2019-06-15T11:17:23.629Z,23.26
2019-06-15T11:18:33.577Z,23.37
2019-06-15T11:19:43.320Z,23.36
2019-06-15T11:20:53.021Z,23.4
2019-06-15T11:22:06.522Z,23.36
2019-06-15T11:23:16.485Z,23.45
2019-06-15T11:24:26.436Z,23.56
2019-06-15T11:25:36.387Z,23.59
2019-06-15T11:26:46.976Z,23.62
2019-06-15T11:27:56.671Z,23.66
2019-06-15T11:29:06.620Z,23.55
2019-06-15T11:30:19.292Z,23.7
2019-06-15T11:31:29.232Z,23.84
2019-06-15T11:32:39.186Z,23.95
2019-06-15T11:33:49.130Z,24.03
2019-06-15T11:34:58.824Z,24.37
2019-06-15T11:36:08.863Z,24.75
2019-06-15T11:37:18.825Z,25.11
2019-06-15T11:38:28.793Z,25.49
2019-06-15T11:39:38.738Z,25.92
2019-06-15T11:40:48.687Z,26.31
2019-06-15T11:41:58.625Z,26.64
2019-06-15T11:43:08.567Z,27.08
2019-06-15T11:44:18.531Z,27.52
2019-06-15T11:45:28.502Z,27.88
2019-06-15T11:46:38.508Z,28.41
2019-06-15T11:47:48.517Z,28.74
2019-06-15T11:48:58.243Z,29.15
2019-06-15T11:50:07.711Z,29.39
2019-06-15T11:51:19.751Z,29.83
2019-06-15T11:52:29.704Z,30.1
2019-06-15T11:53:39.705Z,30.52
2019-06-15T11:54:49.743Z,30.89
2019-06-15T11:55:59.450Z,31.35
2019-06-15T11:57:09.160Z,31.73
2019-06-15T11:58:18.950Z,32.09
2019-06-15T11:59:28.900Z,32.3
2019-06-15T12:00:38.859Z,32.71
2019-06-15T12:01:48.817Z,32.93
2019-06-15T12:02:58.764Z,33.1
2019-06-15T12:04:08.811Z,33.4
2019-06-15T12:05:18.803Z,33.66
2019-06-15T12:06:28.759Z,34.02
2019-06-15T12:07:39.320Z,34.38
2019-06-15T12:08:49.277Z,34.7
2019-06-15T12:09:59.278Z,35.04
2019-06-15T12:11:09.225Z,35.22
2019-06-15T12:12:18.941Z,35.53
2019-06-15T12:13:28.898Z,35.6
2019-06-15T12:14:38.607Z,35.52
2019-06-15T12:15:48.613Z,35.54
2019-06-15T12:16:58.641Z,35.49
2019-06-15T12:18:08.639Z,35.63
2019-06-15T12:19:18.642Z,35.97
2019-06-15T12:20:28.602Z,36.24
2019-06-15T12:21:38.324Z,36.57
2019-06-15T12:22:48.281Z,36.75
2019-06-15T12:23:58.235Z,36.96
2019-06-15T12:25:07.949Z,37.21
2019-06-15T12:26:17.937Z,37.37
2019-06-15T12:27:27.911Z,37.47
2019-06-15T12:28:37.921Z,37.37
2019-06-15T12:29:47.950Z,37.19
2019-06-15T12:30:57.928Z,37.22
2019-06-15T12:32:07.938Z,36.99
2019-06-15T12:33:17.998Z,37.04
2019-06-15T12:34:27.961Z,37.11
2019-06-15T12:35:37.683Z,37.28
2019-06-15T12:36:47.642Z,37.44
2019-06-15T12:37:57.618Z,37.58
2019-06-15T12:39:07.093Z,37.37
2019-06-15T12:40:17.122Z,37.47
2019-06-15T12:41:27.093Z,37.64
2019-06-15T12:42:37.058Z,37.91
2019-06-15T12:43:47.019Z,38
2019-06-15T12:44:56.976Z,38.27
2019-06-15T12:46:06.862Z,38.54
2019-06-15T12:47:16.826Z,38.77
2019-06-15T12:48:26.789Z,38.81
2019-06-15T12:49:36.814Z,39.07
2019-06-15T12:50:46.772Z,39.32
2019-06-15T12:51:56.734Z,39.52
2019-06-15T12:53:06.709Z,39.66
2019-06-15T12:54:16.671Z,39.91
2019-06-15T12:55:26.650Z,40.02
2019-06-15T12:56:36.629Z,40.01
2019-06-15T12:57:46.602Z,40.17
2019-06-15T12:59:00.401Z,40.31
2019-06-15T13:00:10.153Z,40.39
2019-06-15T13:01:20.148Z,40.24
2019-06-15T13:02:30.141Z,40.4
2019-06-15T13:03:40.119Z,40.4
2019-06-15T13:04:50.151Z,40.4
2019-06-15T13:06:00.127Z,40.49
2019-06-15T13:07:10.104Z,40.54
2019-06-15T13:08:19.836Z,40.52
2019-06-15T13:09:29.826Z,40.59
2019-06-15T13:10:39.790Z,40.83
2019-06-15T13:11:49.779Z,40.89
2019-06-15T13:12:59.735Z,40.83
2019-06-15T13:14:09.447Z,40.86
2019-06-15T13:15:19.451Z,41.07
2019-06-15T13:16:43.687Z,41.07
2019-06-15T13:17:55.684Z,41.11
2019-06-15T13:19:05.659Z,41.26
2019-06-15T13:20:15.650Z,41.27
2019-06-15T13:21:25.616Z,40.98
2019-06-15T13:22:35.580Z,40.83
2019-06-15T13:23:45.543Z,40.86
2019-06-15T13:24:55.646Z,40.73
2019-06-15T13:26:05.718Z,40.76
2019-06-15T13:27:15.752Z,40.89
2019-06-15T13:28:25.716Z,40.98
2019-06-15T13:29:35.683Z,41.03
2019-06-15T13:30:45.667Z,40.89
2019-06-15T13:31:55.639Z,40.95
2019-06-15T13:33:05.606Z,41.04
2019-06-15T13:34:15.571Z,40.83
2019-06-15T13:35:25.542Z,40.86
2019-06-15T13:36:35.285Z,40.93
2019-06-15T13:37:47.257Z,40.74
2019-06-15T13:38:57.222Z,40.83
2019-06-15T13:40:06.668Z,40.86
2019-06-15T13:41:16.637Z,40.86
2019-06-15T13:42:29.785Z,40.83
2019-06-15T13:43:39.748Z,40.89
2019-06-15T13:44:49.709Z,40.76
2019-06-15T13:45:59.420Z,40.69
2019-06-15T13:47:09.538Z,40.71
2019-06-15T13:48:19.497Z,40.73
2019-06-15T13:49:29.459Z,40.96
2019-06-15T13:50:39.421Z,41.32
2019-06-15T13:51:49.396Z,41.51
2019-06-15T13:52:59.372Z,41.76
2019-06-15T13:54:09.362Z,41.99
2019-06-15T13:55:21.677Z,42.21
2019-06-15T13:56:31.908Z,42.34
2019-06-15T13:57:41.885Z,42.29
2019-06-15T13:58:51.683Z,42.39
2019-06-15T14:00:01.693Z,42.39
2019-06-15T14:01:11.799Z,42.27
2019-06-15T14:02:21.801Z,42.12
2019-06-15T14:03:31.818Z,42.29
2019-06-15T14:04:41.793Z,42.02
2019-06-15T14:05:51.770Z,42.28
2019-06-15T14:07:01.809Z,42.56
2019-06-15T14:08:11.883Z,42.56
2019-06-15T14:09:21.913Z,42.71
2019-06-15T14:10:31.688Z,42.81
2019-06-15T14:11:41.652Z,42.92
2019-06-15T14:12:51.619Z,43.02
2019-06-15T14:14:01.065Z,43.18
2019-06-15T14:15:10.797Z,43.09
2019-06-15T14:16:20.789Z,43.15
2019-06-15T14:17:30.303Z,43.41
2019-06-15T14:18:40.011Z,43.49
2019-06-15T14:19:49.968Z,43.43
2019-06-15T14:20:59.939Z,43.43
2019-06-15T14:22:09.907Z,43.56
2019-06-15T14:23:19.870Z,43.54
2019-06-15T14:24:29.838Z,43.58
2019-06-15T14:25:39.575Z,43.46
2019-06-15T14:26:49.533Z,43.57
2019-06-15T14:27:59.497Z,43.68
2019-06-15T14:29:09.227Z,43.58
2019-06-15T14:30:22.708Z,43.84
2019-06-15T14:31:32.954Z,43.87
2019-06-15T14:32:57.245Z,44.02
2019-06-15T14:34:06.954Z,43.97
2019-06-15T14:35:16.680Z,43.84
2019-06-15T14:36:26.643Z,43.97
2019-06-15T14:37:36.683Z,44.13
2019-06-15T14:38:46.403Z,44.13
2019-06-15T14:39:56.375Z,43.77
2019-06-15T14:41:06.372Z,43.69
2019-06-15T14:42:16.402Z,43.94
2019-06-15T14:43:26.413Z,43.94
2019-06-15T14:44:35.880Z,44.09
2019-06-15T14:46:00.739Z,44.1
2019-06-15T14:47:10.472Z,43.94
2019-06-15T14:48:20.447Z,44
2019-06-15T14:49:30.443Z,44
2019-06-15T14:50:40.414Z,44.25
2019-06-15T14:51:53.422Z,44.21
2019-06-15T14:53:03.425Z,44.13
2019-06-15T14:54:13.216Z,44.22
2019-06-15T14:55:26.069Z,43.77
2019-06-15T14:56:36.252Z,43.65
2019-06-15T14:57:46.219Z,43.8
2019-06-15T14:58:58.732Z,43.85
2019-06-15T15:00:13.099Z,44
2019-06-15T15:01:26.076Z,44.18
2019-06-15T15:02:37.117Z,44.45
2019-06-15T15:03:49.627Z,44.45
2019-06-15T15:05:02.423Z,44.4
2019-06-15T15:06:16.979Z,44.42
2019-06-15T15:07:28.885Z,44.77